Time;durP1;ratioP1;P1;durP2;ratioP2;P2;SDS_P1;SDS_P2;PMS_P1;PMS_P2;Temp;Humidity;BMP_temperature;BMP_pressure;BME280_temperature;BME280_humidity;BME280_pressure;Samples;Min_cycle;Max_cycle;Signal;HPM_P1;HPM_P2
2021/03/29 04:15:16;;;;;;;7.22;3.63;;;;;;;3.02;79.19;100312.59;5860934;23;20035;-70
2021/03/29 04:17:42;;;;;;;12.43;3.83;;;;;;;2.99;79.27;100317.59;4880147;29;20490;-71
2021/03/29 04:20:08;;;;;;;12.80;4.15;;;;;;;3.01;79.40;100318.53;4880420;29;20474;-71
2021/03/29 04:22:34;;;;;;;6.95;3.28;;;;;;;3.05;79.55;100312.72;4880220;29;20025;-71
2021/03/29 04:24:59;;;;;;;6.60;3.88;;;;;;;3.09;78.96;100330.81;4880421;29;20530;-71
2021/03/29 04:27:25;;;;;;;7.45;3.58;;;;;;;3.02;79.28;100322.84;4875898;29;20049;-71
2021/03/29 04:29:50;;;;;;;7.18;3.60;;;;;;;3.12;79.40;100324.91;4849776;29;20090;-71
2021/03/29 04:32:16;;;;;;;8.60;3.80;;;;;;;3.16;79.32;100325.91;4847385;29;20491;-71
2021/03/29 04:34:41;;;;;;;8.07;3.75;;;;;;;3.18;79.14;100330.25;4796636;29;20049;-71
2021/03/29 04:37:06;;;;;;;9.52;3.67;;;;;;;3.25;79.01;100332.25;4847621;29;20113;-71
2021/03/29 04:39:31;;;;;;;7.38;3.40;;;;;;;3.27;78.87;100328.03;4847251;29;20029;-71
2021/03/29 04:41:57;;;;;;;5.07;3.53;;;;;;;3.23;79.00;100333.84;4847199;29;20044;-71
2021/03/29 04:44:22;;;;;;;10.18;3.50;;;;;;;3.34;78.61;100337.69;4847328;29;20045;-69
2021/03/29 04:46:48;;;;;;;13.98;4.70;;;;;;;3.12;79.08;100335.16;4847254;29;20145;-71
2021/03/29 04:49:13;;;;;;;9.35;4.13;;;;;;;3.10;79.31;100336.81;4801085;29;20068;-71
2021/03/29 04:51:38;;;;;;;9.07;4.38;;;;;;;3.16;79.04;100337.03;4757189;29;20053;-71
2021/03/29 04:54:04;;;;;;;8.18;4.43;;;;;;;3.15;79.31;100342.09;4742342;29;20763;-71
2021/03/29 04:56:30;;;;;;;12.70;4.20;;;;;;;2.98;79.83;100342.31;4726187;29;20503;-71
2021/03/29 04:58:55;;;;;;;13.48;3.72;;;;;;;3.06;79.61;100342.63;4848755;29;20040;-71
2021/03/29 05:01:20;;;;;;;9.38;4.28;;;;;;;3.08;79.47;100334.16;4714587;29;20056;-70
2021/03/29 05:03:46;;;;;;;10.20;4.15;;;;;;;3.15;79.48;100340.41;4762773;29;20033;-71
2021/03/29 05:06:11;;;;;;;18.30;4.97;;;;;;;3.11;79.27;100338.53;4745422;29;20042;-71
2021/03/29 05:08:36;;;;;;;13.07;5.30;;;;;;;3.09;79.28;100335.03;4742707;29;20218;-71
2021/03/29 05:11:02;;;;;;;14.57;6.38;;;;;;;3.09;79.30;100340.16;4762382;29;20121;-71
2021/03/29 05:13:27;;;;;;;16.35;5.32;;;;;;;3.10;79.09;100339.38;4715438;29;20443;-70
2021/03/29 05:15:53;;;;;;;13.13;5.78;;;;;;;3.16;79.27;100339.59;4759251;29;21396;-71
2021/03/29 05:18:18;;;;;;;11.43;5.03;;;;;;;3.16;79.21;100339.59;4852176;29;20108;-71
2021/03/29 05:20:43;;;;;;;14.73;5.10;;;;;;;3.13;79.36;100342.03;4852251;29;20097;-71
2021/03/29 05:23:09;;;;;;;12.73;4.65;;;;;;;3.18;79.19;100340.50;4852000;29;20456;-71
2021/03/29 05:25:34;;;;;;;13.60;4.57;;;;;;;3.24;79.08;100345.88;4852174;29;20033;-70
2021/03/29 05:27:59;;;;;;;11.98;4.38;;;;;;;3.38;78.54;100348.03;4852053;29;20033;-70
2021/03/29 05:30:25;;;;;;;9.68;4.32;;;;;;;3.46;78.15;100351.75;4806517;29;20068;-70
2021/03/29 05:32:50;;;;;;;9.55;4.63;;;;;;;3.44;78.08;100353.41;4851917;29;20080;-70
2021/03/29 05:35:16;;;;;;;9.05;4.20;;;;;;;3.50;77.92;100359.59;4852024;29;20196;-73
2021/03/29 05:37:41;;;;;;;9.93;4.65;;;;;;;3.61;77.46;100357.41;4851841;29;20025;-73
2021/03/29 05:40:07;;;;;;;11.10;4.68;;;;;;;3.59;77.49;100359.94;4852023;29;20069;-73
2021/03/29 05:42:33;;;;;;;8.07;4.57;;;;;;;3.62;77.12;100359.16;4851624;29;20034;-72
2021/03/29 05:45:07;;;;;;;8.88;4.15;;;;;;;3.74;76.74;100353.59;4847921;29;20045;-72
2021/03/29 05:47:32;;;;;;;8.43;4.40;;;;;;;3.92;76.47;100353.38;4842240;29;20029;-72
2021/03/29 05:50:01;;;;;;;9.07;4.50;;;;;;;4.09;75.56;100354.81;4801003;29;20559;-72
2021/03/29 05:52:28;;;;;;;17.85;5.72;;;;;;;4.22;75.76;100349.25;4850937;29;20045;-72
2021/03/29 05:54:55;;;;;;;10.82;4.63;;;;;;;4.23;75.01;100351.00;4865677;29;20041;-72
2021/03/29 05:57:21;;;;;;;8.45;3.78;;;;;;;4.44;74.22;100349.94;4851621;29;20030;-72
2021/03/29 05:59:46;;;;;;;8.40;4.22;;;;;;;4.58;74.09;100358.94;4851620;29;20073;-72
2021/03/29 06:02:30;;;;;;;11.45;4.53;;;;;;;4.63;73.77;100348.00;4850598;29;20081;-73
2021/03/29 06:04:55;;;;;;;7.95;4.45;;;;;;;4.69;73.56;100355.03;4849920;29;20073;-73
2021/03/29 06:07:29;;;;;;;9.45;4.60;;;;;;;4.79;73.10;100357.06;4851574;29;20517;-73
2021/03/29 06:10:05;;;;;;;8.73;4.65;;;;;;;5.04;73.02;100362.94;4851434;29;20037;-73
2021/03/29 06:12:45;;;;;;;14.13;4.95;;;;;;;5.04;72.58;100366.38;4851504;29;20514;-73
2021/03/29 06:15:12;;;;;;;10.40;4.70;;;;;;;4.96;72.46;100366.97;4842809;29;20137;-73
2021/03/29 06:17:37;;;;;;;9.43;4.85;;;;;;;5.09;72.77;100369.09;4842399;29;20030;-73
2021/03/29 06:20:04;;;;;;;10.43;4.60;;;;;;;5.33;72.29;100369.81;4841748;29;20041;-73
2021/03/29 06:22:31;;;;;;;12.73;4.65;;;;;;;5.80;69.71;100367.69;4837097;29;20566;-73
2021/03/29 06:25:13;;;;;;;12.25;4.63;;;;;;;6.87;66.71;100369.50;4802835;29;20064;-73
2021/03/29 06:27:47;;;;;;;14.05;5.63;;;;;;;6.53;67.08;100378.13;4824698;29;20046;-73
2021/03/29 06:30:15;;;;;;;13.63;4.60;;;;;;;5.91;68.79;100386.88;4820586;29;20030;-73
2021/03/29 06:33:03;;;;;;;9.45;4.20;;;;;;;5.50;70.50;100387.38;4820146;29;20117;-72
2021/03/29 06:35:30;;;;;;;8.00;4.38;;;;;;;5.26;71.39;100388.41;4812218;29;20018;-73
2021/03/29 06:38:11;;;;;;;13.13;4.32;;;;;;;5.50;71.19;100395.97;4811416;29;20038;-72
2021/03/29 06:40:54;;;;;;;10.05;4.85;;;;;;;5.50;71.70;100400.25;4812798;29;20034;-73
2021/03/29 06:43:23;;;;;;;10.80;5.93;;;;;;;5.39;71.76;100393.09;4769997;29;20142;-73
2021/03/29 06:45:50;;;;;;;9.93;4.60;;;;;;;5.55;71.57;100403.81;4781713;29;20053;-73
2021/03/29 06:48:24;;;;;;;16.85;5.18;;;;;;;5.52;71.25;100401.19;4823740;29;20105;-73
2021/03/29 06:51:12;;;;;;;8.18;5.10;;;;;;;5.83;71.04;100403.75;4821149;29;20034;-73
2021/03/29 06:54:08;;;;;;;19.85;5.25;;;;;;;5.74;70.31;100405.19;4815798;29;20050;-70
2021/03/29 06:56:39;;;;;;;16.15;6.93;;;;;;;5.99;70.31;100405.06;4815543;29;20080;-71
2021/03/29 06:59:04;;;;;;;18.13;5.45;;;;;;;5.97;70.29;100416.16;4816902;29;20042;-70
2021/03/29 07:01:32;;;;;;;11.73;4.80;;;;;;;6.05;70.14;100404.38;4816345;29;21046;-70
2021/03/29 07:03:58;;;;;;;14.77;5.55;;;;;;;6.08;69.69;100399.28;4822201;29;20029;-70
2021/03/29 07:06:24;;;;;;;19.33;6.30;;;;;;;6.38;69.41;100415.56;4825262;29;20050;-70
2021/03/29 07:08:51;;;;;;;11.85;5.30;;;;;;;7.11;67.43;100413.84;4826062;29;20054;-70
2021/03/29 07:11:18;;;;;;;13.52;5.63;;;;;;;8.13;63.44;100403.88;4825819;29;20030;-70
2021/03/29 07:13:45;;;;;;;11.23;5.47;;;;;;;8.38;61.83;100400.88;4821937;29;20038;-70
2021/03/29 07:16:10;;;;;;;15.50;4.93;;;;;;;7.80;62.76;100410.13;4822901;29;20065;-70
2021/03/29 07:18:37;;;;;;;13.00;5.55;;;;;;;7.65;63.96;100402.94;4823815;29;20117;-70
2021/03/29 07:21:05;;;;;;;10.30;5.20;;;;;;;8.03;63.35;100402.81;4826621;29;20041;-70
2021/03/29 07:23:32;;;;;;;17.70;5.57;;;;;;;7.70;63.71;100410.78;4832954;29;20042;-70
2021/03/29 07:25:58;;;;;;;8.18;4.65;;;;;;;7.21;65.48;100417.50;4835759;29;20118;-70
2021/03/29 07:28:27;;;;;;;10.18;5.63;;;;;;;8.12;63.53;100409.84;4835721;29;20383;-70
2021/03/29 07:30:54;;;;;;;8.43;4.68;;;;;;;9.96;57.25;100398.78;4835641;29;20045;-70
2021/03/29 07:33:21;;;;;;;9.73;4.47;;;;;;;12.19;51.38;100395.88;4835625;29;20152;-71
2021/03/29 07:35:46;;;;;;;10.75;4.68;;;;;;;11.50;51.73;100404.25;4835617;29;20048;-71
2021/03/29 07:38:12;;;;;;;11.52;3.92;;;;;;;10.45;54.98;100407.03;4835718;29;20026;-71
2021/03/29 07:40:40;;;;;;;9.02;4.40;;;;;;;9.67;57.64;100413.97;4835913;29;20113;-71
2021/03/29 07:43:06;;;;;;;9.95;4.80;;;;;;;9.17;59.41;100421.06;4830711;29;20045;-70
2021/03/29 07:45:35;;;;;;;11.50;4.43;;;;;;;10.21;55.96;100417.16;4825237;29;20026;-70
2021/03/29 07:48:00;;;;;;;14.35;4.88;;;;;;;9.70;57.09;100413.13;4826250;29;20044;-70
2021/03/29 07:50:25;;;;;;;10.50;5.00;;;;;;;11.69;53.15;100409.53;4826428;29;20034;-70
2021/03/29 07:52:55;;;;;;;15.10;5.95;;;;;;;12.53;49.64;100401.97;4825847;29;20037;-70
2021/03/29 07:55:49;;;;;;;11.60;5.82;;;;;;;14.12;46.39;100391.94;4825726;29;20041;-71
2021/03/29 07:58:17;;;;;;;10.80;4.50;;;;;;;13.36;47.19;100406.19;4826441;29;20044;-71
2021/03/29 08:00:45;;;;;;;9.85;4.80;;;;;;;15.46;43.82;100404.66;4825870;29;20037;-71
2021/03/29 08:03:10;;;;;;;17.67;5.47;;;;;;;14.03;45.36;100415.47;4823500;29;21042;-71
2021/03/29 08:05:46;;;;;;;9.98;5.57;;;;;;;13.30;48.38;100413.19;4827472;29;20030;-70
2021/03/29 08:08:27;;;;;;;8.25;5.00;;;;;;;12.57;50.31;100421.88;4826045;29;20030;-71
2021/03/29 08:11:01;;;;;;;12.05;4.95;;;;;;;12.86;50.04;100407.16;4825766;29;20030;-71
2021/03/29 08:13:37;;;;;;;12.10;5.40;;;;;;;11.73;51.10;100421.66;4833719;29;20034;-71
2021/03/29 08:16:03;;;;;;;13.80;5.18;;;;;;;11.76;52.22;100422.56;4827671;29;20042;-71
2021/03/29 08:18:29;;;;;;;10.77;4.93;;;;;;;13.33;49.08;100407.94;4828384;29;20056;-71
2021/03/29 08:20:56;;;;;;;17.63;5.53;;;;;;;14.99;45.47;100413.91;4828442;29;20026;-71
2021/03/29 08:23:38;;;;;;;20.17;5.18;;;;;;;15.44;42.54;100411.66;4827659;29;20033;-71
2021/03/29 08:26:12;;;;;;;8.88;4.93;;;;;;;14.98;43.47;100411.28;4827680;29;20030;-71
2021/03/29 08:29:08;;;;;;;13.23;5.13;;;;;;;15.07;43.39;100412.06;4828258;29;20030;-71
2021/03/29 08:32:03;;;;;;;12.05;4.78;;;;;;;18.44;37.15;100403.81;4827680;29;20030;-71
2021/03/29 08:35:01;;;;;;;10.05;3.90;;;;;;;21.57;31.67;100392.63;4827465;29;20663;-72
2021/03/29 08:37:28;;;;;;;9.95;4.78;;;;;;;20.87;32.47;100398.56;4828149;29;20113;-72
2021/03/29 08:39:56;;;;;;;8.80;4.25;;;;;;;20.78;30.69;100397.97;4827879;29;20496;-71
2021/03/29 08:42:28;;;;;;;9.77;4.55;;;;;;;20.28;32.63;100397.84;4740042;29;20190;-71
2021/03/29 08:44:54;;;;;;;9.65;4.32;;;;;;;21.15;30.51;100401.97;4831180;29;20058;-71
2021/03/29 08:47:24;;;;;;;15.77;5.55;;;;;;;22.79;28.89;100399.19;4834025;29;20484;-72
2021/03/29 08:50:01;;;;;;;6.43;3.67;;;;;;;24.41;27.11;100398.06;4834628;29;20054;-71
2021/03/29 08:52:39;;;;;;;14.70;4.22;;;;;;;23.94;25.88;100401.19;4828617;29;20297;-71
2021/03/29 08:55:05;;;;;;;4.18;2.95;;;;;;;25.31;24.50;100397.00;4812155;29;20472;-72
2021/03/29 08:57:32;;;;;;;5.55;2.38;;;;;;;25.05;24.02;100395.69;4834185;29;20117;-72
2021/03/29 09:00:00;;;;;;;6.03;2.80;;;;;;;28.02;20.92;100396.28;4834492;29;20037;-72
2021/03/29 09:02:26;;;;;;;4.43;2.30;;;;;;;28.43;19.75;100398.94;4834197;29;20030;-72
2021/03/29 09:04:53;;;;;;;4.25;1.92;;;;;;;23.83;22.13;100404.31;4834335;29;20094;-72
2021/03/29 09:07:20;;;;;;;2.90;1.98;;;;;;;27.49;19.58;100398.69;4833940;29;20460;-73
2021/03/29 09:09:45;;;;;;;6.35;2.08;;;;;;;26.82;19.78;100397.44;4827047;29;21531;-73
2021/03/29 09:12:30;;;;;;;7.45;2.08;;;;;;;24.05;21.96;100398.88;4831734;29;20041;-72
2021/03/29 09:14:56;;;;;;;4.82;2.03;;;;;;;23.82;23.27;100402.59;4832905;29;20044;-72
2021/03/29 09:17:26;;;;;;;5.05;2.30;;;;;;;24.52;23.09;100403.72;4832951;29;20125;-72
2021/03/29 09:19:52;;;;;;;4.15;2.17;;;;;;;24.92;22.29;100396.38;4832142;29;20033;-72
2021/03/29 09:22:37;;;;;;;5.18;1.92;;;;;;;25.55;20.65;100396.63;4831757;29;20079;-72
2021/03/29 09:25:04;;;;;;;3.78;1.60;;;;;;;27.05;20.12;100404.91;4833214;29;20153;-72
2021/03/29 09:27:33;;;;;;;7.93;1.80;;;;;;;26.23;19.58;100405.25;4832257;29;20042;-72
2021/03/29 09:30:00;;;;;;;3.38;1.50;;;;;;;29.06;16.77;100400.06;4832327;29;20038;-72
2021/03/29 09:32:26;;;;;;;4.40;1.70;;;;;;;26.06;20.44;100406.22;4833600;29;21220;-72
2021/03/29 09:34:53;;;;;;;5.78;2.05;;;;;;;25.68;19.17;100408.31;4833424;29;20377;-72
2021/03/29 09:37:24;;;;;;;8.10;1.95;;;;;;;29.47;17.17;100399.00;4832775;29;20117;-72
2021/03/29 09:40:05;;;;;;;5.32;1.85;;;;;;;31.20;15.37;100405.81;4832418;29;20089;-72
2021/03/29 09:42:46;;;;;;;4.70;1.65;;;;;;;30.12;16.24;100407.66;4833319;29;20037;-72
2021/03/29 09:45:24;;;;;;;2.25;1.40;;;;;;;28.85;17.08;100413.88;4834386;29;20029;-72
2021/03/29 09:48:10;;;;;;;6.22;1.80;;;;;;;29.25;17.29;100410.31;4841301;29;20037;-72
2021/03/29 09:50:39;;;;;;;4.97;1.50;;;;;;;30.73;15.68;100407.63;4840192;29;20396;-72
2021/03/29 09:53:23;;;;;;;7.40;2.05;;;;;;;29.81;16.48;100401.00;4841332;29;20037;-72
2021/03/29 09:55:56;;;;;;;4.20;1.40;;;;;;;31.17;14.97;100412.25;4840066;29;20166;-72
2021/03/29 09:58:23;;;;;;;4.97;1.77;;;;;;;28.25;17.76;100409.00;4833056;29;20030;-72
2021/03/29 10:00:51;;;;;;;4.97;1.73;;;;;;;30.14;16.58;100405.75;4820967;29;20058;-71
2021/03/29 10:03:18;;;;;;;4.78;1.63;;;;;;;28.00;17.68;100408.88;4832210;29;20093;-71
2021/03/29 10:05:44;;;;;;;7.40;1.70;;;;;;;29.11;16.84;100409.47;4832228;29;20064;-70
2021/03/29 10:08:10;;;;;;;4.65;1.80;;;;;;;25.58;20.49;100412.41;4833075;29;20033;-71
2021/03/29 10:10:35;;;;;;;6.70;1.83;;;;;;;28.41;17.27;100399.03;4832547;29;20170;-71
2021/03/29 10:13:12;;;;;;;6.07;1.77;;;;;;;30.29;15.86;100398.41;4832649;29;20396;-71
2021/03/29 10:15:40;;;;;;;7.93;1.52;;;;;;;28.94;17.31;100402.63;4822416;29;20065;-71
2021/03/29 10:18:13;;;;;;;7.22;1.80;;;;;;;27.31;18.53;100394.50;4818827;29;20452;-71
2021/03/29 10:20:44;;;;;;;3.90;2.00;;;;;;;27.66;18.64;100395.00;4818416;29;20042;-71
2021/03/29 10:23:27;;;;;;;6.05;2.00;;;;;;;26.75;18.73;100396.97;4817600;29;20118;-71
2021/03/29 10:26:18;;;;;;;5.65;2.08;;;;;;;24.36;22.33;100398.28;4816414;29;20068;-70
2021/03/29 10:28:55;;;;;;;7.00;1.92;;;;;;;23.05;23.84;100400.72;4845805;23;20075;-76
2021/03/29 10:31:21;;;;;;;7.50;2.20;;;;;;;25.16;21.20;100389.00;4853939;29;20033;-76
2021/03/29 10:33:47;;;;;;;5.18;1.48;;;;;;;27.13;18.85;100391.19;4855315;29;20039;-74
2021/03/29 10:36:17;;;;;;;5.38;1.77;;;;;;;23.91;22.37;100388.94;4854628;29;20025;-73
2021/03/29 10:38:43;;;;;;;4.28;1.80;;;;;;;27.12;18.45;100384.13;4853814;29;20406;-75
2021/03/29 10:41:08;;;;;;;7.75;2.13;;;;;;;27.93;18.04;100366.59;4855492;29;20033;-65
2021/03/29 10:43:34;;;;;;;6.05;1.83;;;;;;;29.12;16.58;100372.97;4854847;29;20037;-65
2021/03/29 10:45:59;;;;;;;5.50;2.03;;;;;;;30.81;15.81;100373.09;4866722;29;20029;-65
2021/03/29 10:48:24;;;;;;;8.20;2.00;;;;;;;29.01;16.82;100378.16;4868886;29;20081;-67
2021/03/29 10:50:50;;;;;;;5.30;2.25;;;;;;;27.07;17.89;100376.38;4869204;29;20040;-67
2021/03/29 10:53:15;;;;;;;5.53;2.35;;;;;;;27.22;18.59;100382.59;4869440;29;20270;-67
2021/03/29 10:55:40;;;;;;;4.57;1.75;;;;;;;27.31;18.63;100379.38;4869435;29;20136;-67
2021/03/29 10:58:06;;;;;;;5.65;1.95;;;;;;;27.81;18.07;100367.41;4869723;29;20021;-67
2021/03/29 11:00:31;;;;;;;7.78;1.85;;;;;;;29.19;16.28;100371.56;4872434;29;20695;-67
2021/03/29 11:02:56;;;;;;;6.03;2.10;;;;;;;28.67;16.26;100362.63;4871557;29;20037;-67
2021/03/29 11:05:22;;;;;;;8.32;2.15;;;;;;;29.33;16.54;100370.59;4818390;29;20051;-67
2021/03/29 11:07:47;;;;;;;5.03;1.70;;;;;;;29.11;16.70;100361.44;4872451;29;20587;-67
2021/03/29 11:10:13;;;;;;;8.88;2.20;;;;;;;29.01;16.53;100364.81;4872738;29;20040;-67
2021/03/29 11:12:38;;;;;;;5.03;1.85;;;;;;;29.75;15.81;100361.38;4871690;29;20508;-67
2021/03/29 11:15:05;;;;;;;3.10;1.75;;;;;;;29.97;16.12;100360.63;4872647;29;20037;-67
2021/03/29 11:17:30;;;;;;;5.38;1.75;;;;;;;27.80;19.37;100363.03;4871946;29;20032;-67
2021/03/29 11:19:56;;;;;;;4.75;2.00;;;;;;;26.28;19.80;100365.97;4873173;29;20037;-67
2021/03/29 11:22:21;;;;;;;3.75;1.77;;;;;;;27.70;18.20;100364.53;4872998;29;20029;-67
2021/03/29 11:24:47;;;;;;;5.78;1.58;;;;;;;27.15;18.87;100357.34;4872680;29;20025;-67
2021/03/29 11:27:12;;;;;;;6.47;1.90;;;;;;;26.21;18.98;100364.63;4871623;29;20945;-67
2021/03/29 11:29:37;;;;;;;6.95;1.90;;;;;;;28.19;17.94;100353.41;4872253;29;20045;-67
2021/03/29 11:32:03;;;;;;;5.95;2.20;;;;;;;27.81;17.78;100350.56;4869119;29;20029;-67
2021/03/29 11:34:28;;;;;;;5.20;1.70;;;;;;;29.20;17.34;100349.22;4879811;29;20041;-67
2021/03/29 11:36:54;;;;;;;9.70;4.82;;;;;;;29.38;16.52;100344.41;4864641;29;20029;-67
2021/03/29 11:39:19;;;;;;;6.90;2.38;;;;;;;29.52;15.99;100340.75;4866939;29;20041;-67
2021/03/29 11:41:44;;;;;;;6.05;1.58;;;;;;;28.70;16.76;100345.56;4863304;29;20025;-66
2021/03/29 11:44:10;;;;;;;4.50;2.10;;;;;;;29.15;16.62;100346.03;4851912;29;20037;-67
2021/03/29 11:46:35;;;;;;;4.15;1.60;;;;;;;26.85;18.51;100350.25;4864591;29;20037;-67
2021/03/29 11:49:01;;;;;;;5.18;2.00;;;;;;;28.12;17.66;100342.28;4864101;29;20032;-67
2021/03/29 11:51:26;;;;;;;6.68;2.05;;;;;;;25.25;20.33;100346.91;4863596;29;20070;-67
2021/03/29 11:53:51;;;;;;;6.90;1.90;;;;;;;23.04;22.92;100347.91;4860727;29;20029;-67
2021/03/29 11:56:17;;;;;;;8.07;2.40;;;;;;;27.06;18.10;100341.91;4861405;29;20029;-66
2021/03/29 11:58:46;;;;;;;3.72;1.67;;;;;;;27.22;18.74;100344.50;4861097;29;20112;-66
2021/03/29 12:01:18;;;;;;;8.37;2.10;;;;;;;28.22;17.88;100331.84;4862352;29;20033;-67
2021/03/29 12:03:52;;;;;;;3.65;1.45;;;;;;;27.34;17.63;100336.63;4871152;29;20029;-66
2021/03/29 12:06:22;;;;;;;6.85;1.80;;;;;;;25.70;19.78;100332.06;4872162;29;20060;-67
2021/03/29 12:08:53;;;;;;;7.40;1.92;;;;;;;28.38;16.77;100324.59;4871014;29;20028;-66
2021/03/29 12:14:07;;;;;;;4.00;1.92;;;;;;;26.58;18.75;100330.59;4863703;29;20092;-66
2021/03/29 12:16:38;;;;;;;;;;;;;;;24.51;20.65;100331.25;4862337;29;20145;-67
2021/03/29 12:19:04;;;;;;;5.70;2.08;;;;;;;24.35;21.14;100323.19;4863365;29;19926;-67
2021/03/29 12:21:36;;;;;;;23.00;10.20;;;;;;;22.86;22.76;100335.47;4863171;29;20025;-66
2021/03/29 12:24:11;;;;;;;12.63;2.22;;;;;;;22.63;23.97;100326.75;4858537;29;20029;-66
2021/03/29 12:26:36;;;;;;;6.60;2.15;;;;;;;23.03;23.06;100325.06;4852972;29;20039;-66
2021/03/29 12:29:05;;;;;;;5.90;2.20;;;;;;;22.76;22.73;100319.16;4850707;29;20072;-66
2021/03/29 12:31:33;;;;;;;4.97;1.50;;;;;;;22.24;23.27;100327.50;4850614;29;20037;-66
2021/03/29 12:33:59;;;;;;;5.38;1.83;;;;;;;22.41;23.83;100323.31;4852584;29;20041;-67
2021/03/29 12:36:32;;;;;;;6.55;1.88;;;;;;;22.29;23.29;100322.91;4850679;29;20040;-66
2021/03/29 12:39:05;;;;;;;2.97;1.58;;;;;;;22.17;22.47;100323.38;4851743;29;20176;-66
2021/03/29 12:41:37;;;;;;;7.63;2.17;;;;;;;21.88;23.58;100313.97;4870213;29;20039;-67
2021/03/29 12:44:09;;;;;;;6.95;2.42;;;;;;;21.51;23.78;100311.91;4862955;29;20047;-67
2021/03/29 12:46:35;;;;;;;5.47;1.92;;;;;;;20.89;24.45;100309.81;4863493;29;20033;-67
2021/03/29 12:49:07;;;;;;;4.35;2.25;;;;;;;21.25;24.31;100303.19;4860146;29;20100;-66
2021/03/29 12:51:32;;;;;;;12.45;2.13;;;;;;;20.49;25.56;100305.91;4862223;29;20047;-67
2021/03/29 12:54:19;;;;;;;5.68;2.40;;;;;;;20.55;27.14;100311.00;4865657;29;20028;-66
2021/03/29 12:56:44;;;;;;;3.95;1.75;;;;;;;21.13;25.41;100298.38;4868624;29;20036;-66
2021/03/29 12:59:10;;;;;;;10.35;2.75;;;;;;;21.00;24.77;100291.81;4865006;29;20380;-67
2021/03/29 13:01:39;;;;;;;7.40;2.00;;;;;;;21.59;25.12;100291.38;4864983;29;20037;-66
2021/03/29 13:04:49;;;;;;;5.85;2.08;;;;;;;21.83;24.00;100292.19;4864840;29;20144;-66
2021/03/29 13:12:12;;;;;;;5.50;1.98;;;;;;;21.14;25.22;100280.78;4862317;29;20041;-66
2021/03/29 13:14:56;;;;;;;6.65;1.80;;;;;;;20.94;25.75;100282.38;4862238;29;20032;-66
2021/03/29 13:17:21;;;;;;;5.88;2.15;;;;;;;20.20;25.13;100284.03;4862527;29;20032;-66
2021/03/29 13:19:47;;;;;;;3.70;1.85;;;;;;;20.28;25.96;100278.50;4862910;29;20762;-66
2021/03/29 13:22:12;;;;;;;5.35;1.90;;;;;;;21.11;24.55;100268.56;4860498;29;21310;-66
2021/03/29 13:24:37;;;;;;;6.40;1.80;;;;;;;20.84;25.01;100269.56;4859874;29;20033;-66
2021/03/29 13:27:03;;;;;;;5.85;1.88;;;;;;;20.77;26.23;100264.53;4865817;29;20040;-66
2021/03/29 13:29:29;;;;;;;6.97;1.70;;;;;;;21.37;24.65;100270.25;4870501;29;20041;-67
2021/03/29 13:31:54;;;;;;;9.63;1.90;;;;;;;21.26;24.83;100267.97;4869956;29;20025;-66
2021/03/29 13:34:19;;;;;;;6.47;3.10;;;;;;;21.38;23.51;100258.78;4870606;29;20032;-66
2021/03/29 13:36:45;;;;;;;3.33;1.83;;;;;;;21.54;24.87;100259.03;4869653;29;20124;-66
2021/03/29 13:39:11;;;;;;;8.15;1.98;;;;;;;21.41;23.26;100257.78;4866081;29;20029;-66
2021/03/29 13:41:38;;;;;;;4.22;1.85;;;;;;;21.56;23.97;100265.09;4864440;29;20037;-65
2021/03/29 13:44:08;;;;;;;4.85;1.70;;;;;;;21.25;23.89;100255.72;4861402;29;20414;-65
2021/03/29 13:46:33;;;;;;;4.88;1.63;;;;;;;21.03;23.72;100249.53;4860501;29;20057;-66
2021/03/29 13:49:03;;;;;;;7.97;2.20;;;;;;;21.45;23.54;100246.22;4860881;29;20220;-65
2021/03/29 13:51:29;;;;;;;6.60;1.90;;;;;;;21.88;24.69;100249.78;4861093;29;20044;-66
2021/03/29 13:54:07;;;;;;;6.03;1.77;;;;;;;22.00;23.18;100244.88;4862241;29;20041;-66
2021/03/29 13:56:33;;;;;;;3.70;1.77;;;;;;;21.59;23.13;100233.34;4862094;29;20036;-65
2021/03/29 13:58:58;;;;;;;2.60;1.70;;;;;;;21.72;23.28;100244.28;4861930;29;20029;-66
2021/03/29 14:01:25;;;;;;;18.85;8.48;;;;;;;22.43;23.29;100242.19;4858134;29;20036;-66
2021/03/29 14:03:50;;;;;;;5.70;1.92;;;;;;;21.80;22.64;100243.00;4860030;29;20077;-65
2021/03/29 14:06:16;;;;;;;3.80;1.63;;;;;;;22.32;23.86;100240.88;4858202;29;20046;-66
2021/03/29 14:08:41;;;;;;;9.13;1.90;;;;;;;22.46;22.56;100229.72;4862560;29;20112;-66
2021/03/29 14:11:07;;;;;;;6.15;1.70;;;;;;;22.39;22.22;100233.56;4867972;29;20044;-66
2021/03/29 14:13:33;;;;;;;3.83;1.60;;;;;;;22.07;22.61;100234.91;4869143;29;20037;-65
2021/03/29 14:15:58;;;;;;;2.20;1.30;;;;;;;22.15;22.28;100229.34;4862473;29;20025;-66
2021/03/29 14:18:24;;;;;;;4.03;1.67;;;;;;;21.97;22.81;100233.56;4861445;29;20431;-65
2021/03/29 14:20:50;;;;;;;7.47;2.17;;;;;;;21.88;22.07;100229.53;4861716;29;20057;-66
2021/03/29 14:23:16;;;;;;;7.15;2.40;;;;;;;22.01;21.88;100230.75;4861317;29;20037;-65
2021/03/29 14:25:42;;;;;;;6.65;1.75;;;;;;;21.86;23.06;100227.88;4861041;29;20553;-66
2021/03/29 14:28:09;;;;;;;5.97;1.80;;;;;;;22.07;22.82;100225.19;4861857;29;20036;-66
2021/03/29 14:30:34;;;;;;;5.40;1.70;;;;;;;21.93;22.15;100224.06;4861174;29;20037;-65
2021/03/29 14:33:01;;;;;;;4.00;1.85;;;;;;;21.94;22.40;100223.97;4861031;29;20538;-66
2021/03/29 14:40:32;;;;;;;3.55;1.90;;;;;;;21.91;22.07;100212.72;4861462;29;20040;-66
2021/03/29 14:43:14;;;;;;;6.80;2.13;;;;;;;22.09;23.22;100206.63;4825166;29;20279;-66
2021/03/29 14:45:39;;;;;;;8.43;2.22;;;;;;;22.09;21.58;100206.63;4818166;29;20040;-65
2021/03/29 14:48:05;;;;;;;2.85;1.55;;;;;;;21.98;22.57;100200.97;4860554;29;20021;-66
2021/03/29 14:50:30;;;;;;;4.60;1.55;;;;;;;22.06;22.72;100201.50;4861264;29;20503;-66
2021/03/29 14:52:55;;;;;;;6.60;1.83;;;;;;;22.22;21.86;100196.44;4856470;29;20066;-65
2021/03/29 14:55:22;;;;;;;5.63;1.85;;;;;;;22.45;22.06;100187.53;4854791;29;20499;-65
2021/03/29 14:57:48;;;;;;;4.82;1.52;;;;;;;22.45;21.65;100184.91;4854089;29;20035;-66
2021/03/29 15:00:18;;;;;;;6.78;1.63;;;;;;;22.04;22.31;100187.50;4840748;29;20062;-69
2021/03/29 15:02:46;;;;;;;9.35;2.00;;;;;;;21.35;23.40;100186.84;4862753;29;20029;-69
2021/03/29 15:05:16;;;;;;;8.05;1.42;;;;;;;21.12;23.32;100183.28;4859877;29;20040;-68
2021/03/29 15:07:41;;;;;;;5.30;1.58;;;;;;;20.65;23.96;100180.69;4863553;29;20021;-68
2021/03/29 15:10:07;;;;;;;6.70;2.00;;;;;;;20.41;23.75;100186.81;4863663;29;20064;-68
2021/03/29 15:12:33;;;;;;;6.18;1.80;;;;;;;20.58;24.68;100184.44;4867242;29;20029;-68
2021/03/29 15:14:58;;;;;;;8.18;2.50;;;;;;;21.00;23.99;100186.41;4868934;29;20120;-69
2021/03/29 15:17:24;;;;;;;5.18;1.58;;;;;;;21.53;24.03;100180.84;4869227;29;20036;-69
2021/03/29 15:19:49;;;;;;;7.20;2.10;;;;;;;21.79;22.88;100183.25;4869207;29;20029;-68
2021/03/29 15:22:15;;;;;;;7.10;2.05;;;;;;;21.66;22.71;100182.06;4869255;29;20041;-69
2021/03/29 15:24:41;;;;;;;6.45;1.75;;;;;;;20.71;23.28;100179.59;4869342;29;20033;-69
2021/03/29 15:27:08;;;;;;;9.93;1.90;;;;;;;20.94;24.18;100176.09;4869060;29;20090;-69
2021/03/29 15:29:34;;;;;;;7.10;1.73;;;;;;;21.08;23.53;100172.91;4869154;29;20376;-69
2021/03/29 15:31:59;;;;;;;11.07;2.42;;;;;;;21.08;23.97;100173.81;4869036;29;20052;-66
2021/03/29 15:34:26;;;;;;;6.85;1.55;;;;;;;21.23;23.18;100169.72;4869201;29;20079;-66
2021/03/29 15:36:52;;;;;;;6.53;1.83;;;;;;;21.20;24.20;100173.31;4869297;29;20033;-65
2021/03/29 15:39:18;;;;;;;5.47;2.25;;;;;;;20.93;23.87;100177.84;4869090;29;20393;-65
2021/03/29 15:41:48;;;;;;;5.82;1.98;;;;;;;20.39;24.18;100167.56;4878417;29;20036;-66
2021/03/29 15:44:13;;;;;;;3.58;1.52;;;;;;;20.73;24.77;100178.59;4868775;29;20399;-66
2021/03/29 15:46:45;;;;;;;8.18;1.77;;;;;;;20.79;24.41;100178.41;4872038;29;20044;-67
2021/03/29 15:49:11;;;;;;;6.82;1.80;;;;;;;21.06;23.83;100172.97;4866265;29;20037;-65
2021/03/29 15:51:38;;;;;;;3.85;1.75;;;;;;;20.65;23.96;100172.78;4870979;29;20523;-66
2021/03/29 15:54:03;;;;;;;6.65;1.73;;;;;;;20.43;24.29;100177.06;4871605;29;20535;-66
2021/03/29 15:56:31;;;;;;;3.67;2.00;;;;;;;20.46;24.86;100174.34;4871872;29;20025;-65
2021/03/29 15:58:57;;;;;;;4.75;1.73;;;;;;;20.61;24.59;100173.81;4871757;29;20033;-66
2021/03/29 16:01:22;;;;;;;3.03;1.90;;;;;;;20.44;25.35;100176.16;4870615;29;20101;-66